Follett, Texas
Current Conditions -  °F | °C
As of 12:53 AM on Monday 22 Dec 2014 (Local Time) from KGAG Reporting Station
Overcast Overcast  
Wind Chill: 39°   Ceiling: 700
Heat Index: 45°   Visibility: 7mi
Dew Point: 43°   Wind: 13mph
Humidity: 93%   Direction: 210°SSW
Pressure: 29.54"   Gusts: NA
Location:  36.43°N, 100.14°W
Report Text: KGAG 220653Z AUTO 21011KT 7SM OVC007 07/06 A2954 RMK AO2 SLP003 T00720061
Loading
Personal Weather Stations






























Interactive Weather Map New forecast layout! Learn more

10-Day Weather Forecast

Advertisements
Track Severe Weather on mobile